TAF and METAR

METAR for Bouake Airport

DIBK 011500Z 16010KT 7000 -TSRA BKN011 FEW020CB 25/21 Q1010 NOSIG
Report created 1. apr 17:00
wind 10 knots from SSE (160°) visibility 7000 meters light thunderstorm and rain broken clouds (~75% cover) at 1100 feet some clouds (~25% cover) at 2000 feet of type cumulonimbus Temperature 25° with dewpoint at 21° (Humidity 78.54%) Pressure 1010 hPa no significant weather change expected the next couple of hours

TAF for Bouake Airport

TAF DIBK 011100Z 0112/0212 22008KT 8000 BKN013 PROB30 TEMPO 0112/0118 TS BKN013 FEW020CB PROB30 0202/0208 2000 BR BKN011 BECMG 0210/0212 4000 RA BKN010
Report created 1. apr 13:00

between 1. apr 14:00 - 2. apr 14:00

wind 8 knots from SW (220°) visibility 8000 meters broken clouds (~75% cover) at 1300 feet

probably (~30%) temporarily between 1. apr 14:00 - 1. apr 20:00

thunderstorm broken clouds (~75% cover) at 1300 feet some clouds (~25% cover) at 2000 feet of type cumulonimbus

probably (~30%) between 2. apr 04:00 - 2. apr 10:00

visibility 2000 meters mist broken clouds (~75% cover) at 1100 feet

becoming between 2. apr 12:00 - 2. apr 14:00

visibility 4000 meters rain broken clouds (~75% cover) at 1000 feet
Bouake Airport in Cote d'Ivoire at 376m

Latest 5 airports